Bundyville, New York
Current Conditions -  °F | °C
As of 10:54 AM on Wednesday 26 Nov 2014 (Local Time) from KFZY Reporting Station
Overcast Overcast  
Wind Chill: 30°   Ceiling: 3100
Heat Index: 35°   Visibility: 10mi
Dew Point: 24°   Wind: 6mph
Humidity: 64%   Direction: 20°NNE
Pressure: 30.18"   Gusts: NA
Location:  43.4571°N, 76.4163°W
Report Text: KFZY 261554Z AUTO 02005KT 10SM OVC031 02/M04 A3018 RMK AO2 SLP223 T00171044
Loading
Personal Weather Stations






























Interactive Weather Map New forecast layout! Learn more

10-Day Weather Forecast

Advertisements
Track Severe Weather on mobile